Time;durP1;ratioP1;P1;durP2;ratioP2;P2;SDS_P1;SDS_P2;PMS_P1;PMS_P2;Temp;Humidity;BMP_temperature;BMP_pressure;BME280_temperature;BME280_humidity;BME280_pressure;Samples;Min_cycle;Max_cycle;Signal;HPM_P1;HPM_P2
2023/04/21 00:01:57;;;;;;;17.10;10.05;;;;;;;9.67;71.66;102006.53;7396688;19;20019;-57
2023/04/21 00:04:24;;;;;;;17.90;9.98;;;;;;;9.60;71.84;102002.50;7393879;19;20516;-57
2023/04/21 00:06:52;;;;;;;18.10;10.20;;;;;;;9.55;72.29;102001.88;7393107;19;20022;-55
2023/04/21 00:09:19;;;;;;;17.45;10.23;;;;;;;9.49;72.21;101995.94;7395862;19;20019;-54
2023/04/21 00:11:47;;;;;;;18.75;9.60;;;;;;;9.54;72.13;101995.72;7396878;19;20082;-57
2023/04/21 00:14:14;;;;;;;16.08;9.60;;;;;;;9.51;71.99;101994.09;7392020;19;20051;-56
2023/04/21 00:16:41;;;;;;;17.20;9.70;;;;;;;9.55;72.24;101994.78;7394727;19;20045;-57
2023/04/21 00:19:08;;;;;;;17.27;9.82;;;;;;;9.59;71.81;101993.69;7395774;19;20039;-57
2023/04/21 00:21:35;;;;;;;16.00;10.18;;;;;;;9.58;71.86;101994.66;7394593;19;20019;-57
2023/04/21 00:24:02;;;;;;;19.02;9.95;;;;;;;9.53;72.07;101984.25;7394300;19;20015;-57
2023/04/21 00:26:29;;;;;;;16.30;9.70;;;;;;;9.52;71.91;101979.06;7392429;19;20015;-57
2023/04/21 00:28:56;;;;;;;16.77;10.18;;;;;;;9.53;72.03;101986.06;7395717;19;20035;-55
2023/04/21 00:31:23;;;;;;;14.32;9.35;;;;;;;9.52;72.05;101979.91;7395250;19;20022;-56
2023/04/21 00:33:50;;;;;;;15.68;9.20;;;;;;;9.49;71.99;101984.50;7394604;19;20025;-56
2023/04/21 00:36:17;;;;;;;17.25;9.52;;;;;;;9.53;72.08;101975.47;7394272;19;20039;-57
2023/04/21 00:38:44;;;;;;;20.23;10.23;;;;;;;9.56;71.82;101977.13;7394645;19;20014;-57
2023/04/21 00:41:11;;;;;;;18.35;9.88;;;;;;;9.55;71.92;101978.06;7393724;19;20078;-58
2023/04/21 00:44:01;;;;;;;18.30;9.98;;;;;;;9.59;71.75;101974.34;7392991;19;20535;-57
2023/04/21 00:46:28;;;;;;;15.93;9.23;;;;;;;9.52;71.96;101965.84;7393679;19;20019;-57
2023/04/21 00:48:57;;;;;;;16.55;9.13;;;;;;;9.54;72.02;101958.72;7394963;19;20476;-57
2023/04/21 00:51:26;;;;;;;18.25;9.85;;;;;;;9.57;71.88;101961.16;7393906;19;20018;-57
2023/04/21 00:53:54;;;;;;;17.42;9.80;;;;;;;9.52;72.24;101963.19;7393338;19;20029;-57
2023/04/21 00:56:22;;;;;;;15.48;9.68;;;;;;;9.46;72.25;101964.38;7392966;19;20662;-57
2023/04/21 00:58:49;;;;;;;18.65;9.95;;;;;;;9.44;72.33;101960.94;7394186;19;20436;-57
2023/04/21 01:01:17;;;;;;;17.70;10.55;;;;;;;9.44;72.26;101960.09;7394840;19;20053;-57
2023/04/21 01:03:46;;;;;;;16.33;9.35;;;;;;;9.46;72.42;101974.06;7392982;19;20026;-54
2023/04/21 01:06:13;;;;;;;16.95;9.52;;;;;;;9.50;72.28;101965.94;7392350;19;20342;-55
2023/04/21 01:08:41;;;;;;;16.10;9.43;;;;;;;9.45;72.19;101960.00;7393946;19;20015;-56
2023/04/21 01:11:12;;;;;;;19.02;9.38;;;;;;;9.44;72.11;101954.81;7394800;19;20022;-55
2023/04/21 01:13:40;;;;;;;17.33;9.77;;;;;;;9.42;72.37;101957.50;7392769;19;20018;-56
2023/04/21 01:16:07;;;;;;;16.08;9.48;;;;;;;9.40;72.28;101951.44;7394358;19;20094;-55
2023/04/21 01:18:35;;;;;;;16.05;9.57;;;;;;;9.45;72.18;101953.84;7394102;19;20357;-55
2023/04/21 01:21:03;;;;;;;15.95;9.13;;;;;;;9.46;71.90;101958.22;7392251;19;20031;-55
2023/04/21 01:23:30;;;;;;;15.90;10.02;;;;;;;9.43;71.94;101951.31;7392944;19;20024;-56
2023/04/21 01:25:57;;;;;;;14.75;9.77;;;;;;;9.41;71.91;101942.56;7391689;19;20018;-57
2023/04/21 01:28:25;;;;;;;14.85;9.45;;;;;;;9.41;71.89;101942.56;7393500;19;20078;-57
2023/04/21 01:30:52;;;;;;;15.98;9.43;;;;;;;9.40;71.99;101953.25;7392375;19;20015;-57
2023/04/21 01:33:20;;;;;;;16.27;10.00;;;;;;;9.41;71.87;101937.28;7394260;19;20011;-57
2023/04/21 01:35:47;;;;;;;15.05;9.45;;;;;;;9.39;72.29;101946.25;7392584;19;20015;-56
2023/04/21 01:38:17;;;;;;;15.25;10.43;;;;;;;9.31;72.05;101944.00;7392469;19;20010;-57
2023/04/21 01:40:48;;;;;;;16.75;9.68;;;;;;;9.34;72.00;101943.81;7393371;19;20089;-58
2023/04/21 01:43:17;;;;;;;16.83;10.07;;;;;;;9.34;71.84;101933.22;7393534;19;20014;-57
2023/04/21 01:45:45;;;;;;;15.85;10.02;;;;;;;9.26;72.19;101932.75;7392578;19;20115;-58
2023/04/21 01:48:12;;;;;;;15.88;9.15;;;;;;;9.26;72.06;101927.47;7393667;19;20066;-58
2023/04/21 01:50:40;;;;;;;17.52;9.68;;;;;;;9.25;72.17;101931.06;7392799;19;20018;-58
2023/04/21 01:53:07;;;;;;;14.55;9.05;;;;;;;9.22;72.30;101926.78;7393314;19;20488;-57
2023/04/21 01:55:34;;;;;;;15.10;9.45;;;;;;;9.25;72.09;101931.06;7392804;19;20019;-57
2023/04/21 01:58:01;;;;;;;18.42;9.52;;;;;;;9.28;71.82;101926.47;7391594;19;20021;-57
2023/04/21 02:00:31;;;;;;;15.40;9.82;;;;;;;9.31;72.17;101924.59;7392504;19;20553;-58
2023/04/21 02:02:58;;;;;;;17.45;10.18;;;;;;;9.27;72.23;101927.41;7392677;19;20011;-56
2023/04/21 02:05:25;;;;;;;15.82;9.35;;;;;;;9.25;72.18;101928.41;7392492;19;20019;-57
2023/04/21 02:07:52;;;;;;;16.98;9.98;;;;;;;9.30;72.17;101920.25;7390738;19;20094;-57
2023/04/21 02:10:19;;;;;;;18.48;10.07;;;;;;;9.28;72.27;101925.63;7392226;19;20018;-57
2023/04/21 02:12:46;;;;;;;17.77;9.52;;;;;;;9.26;72.30;101920.41;7392302;19;20010;-57
2023/04/21 02:15:13;;;;;;;17.65;9.68;;;;;;;9.30;72.05;101910.53;7392139;19;20022;-58
2023/04/21 02:17:41;;;;;;;15.93;9.38;;;;;;;9.32;72.26;101924.53;7390092;19;20029;-58
2023/04/21 02:20:10;;;;;;;15.35;9.23;;;;;;;9.25;72.03;101921.34;7390157;19;20010;-58
2023/04/21 02:22:39;;;;;;;17.38;9.65;;;;;;;9.25;72.07;101921.34;7392151;19;20025;-59
2023/04/21 02:25:06;;;;;;;17.33;9.73;;;;;;;9.35;72.02;101921.75;7392402;19;20039;-58
2023/04/21 02:27:33;;;;;;;18.55;9.85;;;;;;;9.30;72.10;101915.81;7389868;19;20069;-58
2023/04/21 02:30:00;;;;;;;16.33;10.10;;;;;;;9.24;72.25;101927.56;7391867;19;20014;-58
2023/04/21 02:32:27;;;;;;;15.68;9.25;;;;;;;9.23;72.41;101920.56;7390523;19;20011;-59
2023/04/21 02:34:54;;;;;;;18.00;9.32;;;;;;;9.23;71.95;101917.06;7392162;19;20049;-57
2023/04/21 02:37:22;;;;;;;14.85;8.88;;;;;;;9.25;72.26;101915.19;7387070;19;20093;-57
2023/04/21 02:39:49;;;;;;;17.23;9.32;;;;;;;9.31;72.11;101920.19;7388543;19;20018;-58
2023/04/21 02:42:16;;;;;;;16.42;9.32;;;;;;;9.34;71.99;101912.09;7385566;19;20494;-58
2023/04/21 02:44:43;;;;;;;16.58;9.07;;;;;;;9.33;71.86;101917.47;7387245;19;20042;-58
2023/04/21 02:47:10;;;;;;;17.52;9.15;;;;;;;9.24;72.21;101922.28;7386458;19;20026;-58
2023/04/21 02:49:41;;;;;;;21.08;9.63;;;;;;;9.23;72.06;101917.06;7388163;19;20463;-56
2023/04/21 02:52:09;;;;;;;18.05;9.45;;;;;;;9.24;72.02;101909.06;7391822;19;20171;-58
2023/04/21 02:54:36;;;;;;;16.25;9.50;;;;;;;9.23;72.12;101923.22;7389767;19;20015;-57
2023/04/21 02:57:03;;;;;;;16.20;9.18;;;;;;;9.19;72.05;101923.41;7389937;19;20483;-57
2023/04/21 02:59:30;;;;;;;14.30;8.82;;;;;;;9.17;72.28;101909.44;7391196;19;20018;-57
2023/04/21 03:01:56;;;;;;;16.42;8.85;;;;;;;9.18;72.16;101924.34;7391683;19;20014;-57
2023/04/21 03:04:24;;;;;;;14.75;8.88;;;;;;;9.21;72.03;101905.72;7391159;19;20022;-57
2023/04/21 03:06:52;;;;;;;18.08;9.32;;;;;;;9.22;71.78;101910.91;7388784;19;20022;-57
2023/04/21 03:09:20;;;;;;;17.58;8.77;;;;;;;9.27;71.69;101914.19;7388357;19;20101;-57
2023/04/21 03:11:47;;;;;;;15.85;9.02;;;;;;;9.25;71.50;101909.91;7391302;19;20356;-57
2023/04/21 03:14:14;;;;;;;16.45;8.57;;;;;;;9.22;72.03;101912.69;7390921;19;20022;-56
2023/04/21 03:16:41;;;;;;;16.80;9.68;;;;;;;9.19;71.91;101907.56;7388422;19;20399;-57
2023/04/21 03:19:08;;;;;;;17.13;8.82;;;;;;;9.20;71.88;101899.56;7388783;19;20369;-57
2023/04/21 03:21:36;;;;;;;16.67;8.02;;;;;;;9.17;72.00;101904.16;7389552;19;20026;-57
2023/04/21 03:24:05;;;;;;;14.63;8.32;;;;;;;9.17;72.01;101904.16;7390477;19;20410;-57
2023/04/21 03:26:32;;;;;;;15.65;8.27;;;;;;;9.14;72.24;101904.31;7389352;19;20090;-57
2023/04/21 03:28:59;;;;;;;13.40;8.25;;;;;;;9.14;72.47;101901.66;7390470;19;20026;-57
2023/04/21 03:31:26;;;;;;;16.92;8.95;;;;;;;9.15;72.05;101904.22;7390290;19;20018;-57
2023/04/21 03:33:53;;;;;;;15.77;8.43;;;;;;;9.12;72.44;101901.75;7389813;19;20014;-57
2023/04/21 03:36:20;;;;;;;18.48;8.88;;;;;;;9.15;72.34;101892.78;7389595;19;20052;-56
2023/04/21 03:38:47;;;;;;;15.65;8.18;;;;;;;9.15;72.41;101900.72;7389536;19;20487;-56
2023/04/21 03:41:14;;;;;;;15.63;8.15;;;;;;;9.14;72.35;101899.88;7390530;19;20192;-57
2023/04/21 03:43:41;;;;;;;14.18;8.15;;;;;;;9.17;72.17;101899.72;7390361;19;20248;-57
2023/04/21 03:46:17;;;;;;;17.20;7.97;;;;;;;9.21;71.98;101900.44;7389281;19;20090;-57
2023/04/21 03:48:44;;;;;;;15.88;8.85;;;;;;;9.18;72.13;101909.34;7389605;19;20023;-57
2023/04/21 03:51:12;;;;;;;16.75;8.88;;;;;;;9.19;71.99;101907.56;7390336;19;20038;-57
2023/04/21 03:53:39;;;;;;;14.25;7.93;;;;;;;9.16;71.94;101907.75;7390011;19;20033;-57
2023/04/21 03:56:06;;;;;;;15.75;8.45;;;;;;;9.14;72.14;101906.94;7389694;19;20022;-57
2023/04/21 03:58:34;;;;;;;13.82;8.23;;;;;;;9.16;71.89;101900.66;7389006;19;20011;-57
2023/04/21 04:01:01;;;;;;;14.50;8.55;;;;;;;9.18;71.91;101890.00;7388658;19;20021;-57
2023/04/21 04:03:28;;;;;;;15.77;8.40;;;;;;;9.07;72.10;101898.44;7390070;19;20098;-57
2023/04/21 04:05:55;;;;;;;18.48;9.18;;;;;;;9.09;71.91;101901.03;7388861;19;20010;-56
2023/04/21 04:08:22;;;;;;;15.93;8.20;;;;;;;9.08;71.98;101894.03;7387231;19;20035;-56
2023/04/21 04:10:49;;;;;;;15.82;8.63;;;;;;;9.09;71.93;101893.97;7387623;19;20019;-56
2023/04/21 04:13:16;;;;;;;18.40;8.60;;;;;;;9.09;71.96;101895.75;7387676;19;20501;-56
2023/04/21 04:15:43;;;;;;;15.50;8.73;;;;;;;9.09;71.85;101890.47;7388734;19;20019;-58
2023/04/21 04:18:10;;;;;;;16.33;8.32;;;;;;;9.07;72.07;101882.59;7389481;19;20378;-58
2023/04/21 04:20:37;;;;;;;15.02;8.38;;;;;;;9.07;72.07;101889.69;7393944;19;20018;-58
2023/04/21 04:23:04;;;;;;;16.90;8.55;;;;;;;9.06;71.79;101893.25;7397101;19;20644;-56
2023/04/21 04:25:32;;;;;;;13.88;8.02;;;;;;;9.06;72.06;101898.53;7395857;19;20073;-56
2023/04/21 04:27:59;;;;;;;14.65;7.97;;;;;;;9.07;71.73;101898.44;7394833;19;20023;-56
2023/04/21 04:30:29;;;;;;;17.00;8.45;;;;;;;9.04;71.99;101893.31;7396158;19;20023;-57
2023/04/21 04:32:56;;;;;;;16.85;7.80;;;;;;;9.11;71.83;101899.16;7395885;19;20086;-58
2023/04/21 04:35:24;;;;;;;16.45;8.82;;;;;;;9.10;71.79;101900.09;7395970;19;20039;-58
2023/04/21 04:37:51;;;;;;;15.35;8.35;;;;;;;9.11;71.71;101907.09;7396014;19;20509;-58
2023/04/21 04:40:18;;;;;;;15.85;8.02;;;;;;;9.11;71.52;101900.00;7393671;19;20359;-57
2023/04/21 04:42:45;;;;;;;17.10;8.75;;;;;;;9.12;71.86;101907.03;7396683;19;20337;-58
2023/04/21 04:45:12;;;;;;;15.25;8.00;;;;;;;9.14;71.72;101907.78;7395846;19;20019;-58
2023/04/21 04:47:39;;;;;;;16.50;8.10;;;;;;;9.10;71.67;101911.53;7393245;19;20078;-57
2023/04/21 04:50:07;;;;;;;19.02;8.60;;;;;;;9.16;72.00;101910.38;7395547;19;20022;-57
2023/04/21 04:52:34;;;;;;;15.02;8.35;;;;;;;9.18;71.86;101916.44;7395490;19;20491;-56
2023/04/21 04:55:01;;;;;;;19.98;9.18;;;;;;;9.16;71.81;101916.50;7395303;19;20014;-56
2023/04/21 04:57:29;;;;;;;12.85;8.05;;;;;;;9.19;71.48;101916.34;7393259;19;20022;-56
2023/04/21 04:59:56;;;;;;;19.42;9.07;;;;;;;9.24;71.53;101924.06;7393073;19;20488;-57
2023/04/21 05:02:23;;;;;;;16.17;8.60;;;;;;;9.28;71.33;101923.84;7393723;19;20070;-57
2023/04/21 05:04:50;;;;;;;14.63;8.05;;;;;;;9.33;71.46;101923.59;7393365;19;20019;-57
2023/04/21 05:07:18;;;;;;;17.25;8.30;;;;;;;9.34;71.53;101922.66;7392671;19;20018;-56
2023/04/21 05:09:45;;;;;;;15.73;7.65;;;;;;;9.35;71.13;101928.81;7394448;19;20014;-57
2023/04/21 05:12:12;;;;;;;15.63;8.43;;;;;;;9.30;71.33;101914.97;7395408;19;20089;-57
2023/04/21 05:14:39;;;;;;;13.95;8.23;;;;;;;9.29;71.44;101922.03;7392458;19;20011;-58
2023/04/21 05:17:06;;;;;;;17.25;8.40;;;;;;;9.28;71.71;101918.53;7391400;19;20018;-59
2023/04/21 05:19:36;;;;;;;16.92;8.38;;;;;;;9.36;71.40;101920.81;7394013;19;20014;-58
2023/04/21 05:22:05;;;;;;;18.73;8.55;;;;;;;9.38;71.66;101915.44;7394885;19;20018;-58
2023/04/21 05:24:33;;;;;;;16.00;8.05;;;;;;;9.45;71.65;101922.13;7394527;19;20516;-57
2023/04/21 05:27:01;;;;;;;14.27;7.95;;;;;;;9.50;71.10;101920.97;7393015;19;20033;-57
2023/04/21 05:29:29;;;;;;;15.40;8.15;;;;;;;9.59;71.08;101919.66;7394012;19;20018;-58
2023/04/21 05:31:56;;;;;;;16.73;8.20;;;;;;;9.68;70.94;101923.63;7391912;19;20434;-58
2023/04/21 05:34:23;;;;;;;15.63;7.93;;;;;;;9.66;70.92;101922.84;7394777;19;20030;-58
2023/04/21 05:36:51;;;;;;;17.65;8.70;;;;;;;9.74;70.84;101925.94;7393275;19;20015;-56
2023/04/21 05:39:18;;;;;;;17.02;8.55;;;;;;;9.81;70.90;101935.28;7393986;19;20398;-56
2023/04/21 05:41:45;;;;;;;15.80;8.40;;;;;;;9.86;70.64;101920.03;7393723;19;20014;-57
2023/04/21 05:44:12;;;;;;;16.88;8.55;;;;;;;9.90;70.65;101921.56;7392997;19;20090;-57
2023/04/21 05:46:39;;;;;;;15.82;8.20;;;;;;;9.96;70.52;101925.72;7392369;19;20039;-58
2023/04/21 05:49:06;;;;;;;15.88;8.90;;;;;;;9.98;70.87;101932.59;7391547;19;20490;-56
2023/04/21 05:51:33;;;;;;;14.35;8.15;;;;;;;10.04;70.69;101934.09;7393310;19;20026;-59
2023/04/21 05:54:00;;;;;;;14.65;8.77;;;;;;;10.06;70.84;101929.56;7393550;19;20022;-59
2023/04/21 05:56:27;;;;;;;14.25;8.48;;;;;;;10.12;70.76;101918.66;7392044;19;20078;-59
2023/04/21 05:58:54;;;;;;;15.52;8.32;;;;;;;10.19;70.71;101919.19;7393177;19;20028;-58
2023/04/21 06:01:21;;;;;;;14.05;7.88;;;;;;;10.27;70.29;101918.81;7393061;19;20025;-59
2023/04/21 06:03:48;;;;;;;13.52;8.50;;;;;;;10.32;70.35;101922.91;7393506;19;20035;-59
2023/04/21 06:06:16;;;;;;;19.40;8.52;;;;;;;10.38;70.12;101922.59;7392199;19;20061;-59
2023/04/21 06:08:43;;;;;;;20.60;8.45;;;;;;;10.43;69.94;101917.91;7391520;19;20018;-59
2023/04/21 06:11:10;;;;;;;18.90;8.68;;;;;;;10.45;69.42;101913.38;7393465;19;20025;-59
2023/04/21 06:13:37;;;;;;;20.20;8.65;;;;;;;10.53;69.29;101902.38;7393203;19;20144;-58
2023/04/21 06:16:06;;;;;;;16.77;8.70;;;;;;;10.56;69.05;101893.38;7392012;19;20430;-57
2023/04/21 06:18:33;;;;;;;19.70;8.70;;;;;;;10.60;68.94;101895.78;7392618;19;20021;-57
2023/04/21 06:21:00;;;;;;;15.50;8.70;;;;;;;10.61;69.11;101899.31;7392901;19;20043;-57
2023/04/21 06:23:27;;;;;;;16.35;8.60;;;;;;;10.69;68.74;101902.38;7392998;19;20023;-58
2023/04/21 06:26:05;;;;;;;16.17;8.40;;;;;;;10.77;68.81;101897.50;7391453;19;20484;-58
2023/04/21 06:28:33;;;;;;;15.82;9.23;;;;;;;10.80;68.30;101888.50;7390778;19;20214;-59
2023/04/21 06:31:01;;;;;;;13.40;8.70;;;;;;;10.85;68.24;101883.81;7392470;19;20090;-59
2023/04/21 06:33:29;;;;;;;16.73;8.43;;;;;;;10.90;68.06;101900.28;7392510;19;20015;-58
2023/04/21 06:35:56;;;;;;;15.68;8.45;;;;;;;10.95;68.05;101898.22;7390672;19;20022;-58
2023/04/21 06:38:23;;;;;;;15.70;8.52;;;;;;;11.01;68.16;101897.91;7391429;19;20547;-57
2023/04/21 06:40:51;;;;;;;14.77;8.45;;;;;;;11.04;67.75;101894.22;7391710;19;20039;-59
2023/04/21 06:43:18;;;;;;;19.52;9.15;;;;;;;11.12;67.94;101895.47;7388258;19;20056;-59
2023/04/21 06:45:45;;;;;;;18.25;8.95;;;;;;;11.16;67.73;101893.50;7390155;19;20258;-58
2023/04/21 06:48:12;;;;;;;19.58;8.75;;;;;;;11.19;67.75;101898.66;7390386;19;20018;-60
2023/04/21 06:50:39;;;;;;;15.88;7.85;;;;;;;11.20;67.50;101895.03;7390331;19;20491;-59
2023/04/21 06:53:06;;;;;;;16.15;8.27;;;;;;;11.31;67.55;101897.06;7389404;19;20030;-59
2023/04/21 06:55:36;;;;;;;16.73;8.80;;;;;;;11.32;67.10;101888.16;7389254;19;20022;-59
2023/04/21 06:58:03;;;;;;;13.45;8.10;;;;;;;11.39;67.33;101884.22;7389008;19;20063;-60
2023/04/21 07:00:30;;;;;;;17.35;9.35;;;;;;;11.45;67.16;101882.06;7391093;19;20036;-60
2023/04/21 07:02:57;;;;;;;16.63;8.52;;;;;;;11.50;66.99;101884.44;7388970;19;20032;-60
2023/04/21 07:05:24;;;;;;;19.23;8.95;;;;;;;11.57;67.06;101884.94;7390943;19;20015;-60
2023/04/21 07:07:53;;;;;;;19.90;9.40;;;;;;;11.56;66.55;101885.84;7388008;19;20021;-60
2023/04/21 07:10:20;;;;;;;16.05;8.70;;;;;;;11.56;66.61;101885.84;7390633;19;20483;-60
2023/04/21 07:12:47;;;;;;;11.82;7.65;;;;;;;11.63;66.92;101881.91;7389936;19;20018;-59
2023/04/21 07:15:14;;;;;;;17.25;8.70;;;;;;;11.72;66.58;101873.41;7389366;19;20022;-60
2023/04/21 07:17:42;;;;;;;14.65;8.63;;;;;;;11.77;66.40;101884.56;7387665;19;20018;-59
2023/04/21 07:20:09;;;;;;;15.65;8.55;;;;;;;11.78;66.14;101875.66;7390055;19;20023;-59
2023/04/21 07:22:37;;;;;;;15.77;8.80;;;;;;;11.85;65.98;101878.84;7388309;19;20036;-59
2023/04/21 07:25:07;;;;;;;16.27;8.43;;;;;;;11.90;66.08;101880.25;7388656;19;20022;-60
2023/04/21 07:27:37;;;;;;;19.58;9.40;;;;;;;11.99;65.89;101881.50;7387926;19;20018;-60
2023/04/21 07:30:05;;;;;;;15.95;8.00;;;;;;;11.95;65.78;101867.56;7389434;19;20021;-60
2023/04/21 07:32:32;;;;;;;17.45;9.35;;;;;;;12.10;65.70;101872.88;7388165;19;20053;-59
2023/04/21 07:35:00;;;;;;;19.60;9.20;;;;;;;12.21;64.89;101867.75;7387921;19;20035;-60
2023/04/21 07:37:27;;;;;;;19.38;9.00;;;;;;;12.22;64.82;101869.47;7388516;19;20039;-60
2023/04/21 07:39:55;;;;;;;15.48;7.93;;;;;;;12.27;64.74;101861.19;7389678;19;20018;-58
2023/04/21 07:42:22;;;;;;;16.23;8.48;;;;;;;12.28;64.49;101858.44;7388897;19;20029;-58
2023/04/21 07:44:49;;;;;;;15.02;8.27;;;;;;;12.37;64.64;101857.88;7388980;19;20047;-59
2023/04/21 07:47:16;;;;;;;17.10;8.68;;;;;;;12.44;64.39;101853.88;7388562;19;20011;-60
2023/04/21 07:49:43;;;;;;;15.98;8.77;;;;;;;12.42;64.01;101842.47;7387706;19;20018;-60
2023/04/21 07:52:10;;;;;;;15.13;8.35;;;;;;;12.50;64.10;101851.75;7390281;19;20027;-60
2023/04/21 07:54:37;;;;;;;20.00;8.88;;;;;;;12.58;63.93;101846.81;7390306;19;20515;-60
2023/04/21 07:57:06;;;;;;;16.33;8.20;;;;;;;12.65;63.57;101840.13;7393051;19;20014;-59
2023/04/21 07:59:33;;;;;;;16.45;8.20;;;;;;;12.68;63.82;101845.25;7394738;19;20025;-60
2023/04/21 08:02:00;;;;;;;20.60;8.93;;;;;;;12.79;63.42;101840.09;7395434;19;20010;-60
2023/04/21 08:04:28;;;;;;;16.48;8.40;;;;;;;12.85;63.34;101838.81;7395398;19;20022;-58
2023/04/21 08:06:55;;;;;;;14.63;8.35;;;;;;;12.94;63.14;101843.56;7394144;19;20024;-59
2023/04/21 08:09:22;;;;;;;16.27;8.13;;;;;;;13.03;62.86;101836.78;7393193;19;20449;-60
2023/04/21 08:11:49;;;;;;;14.85;7.95;;;;;;;13.11;62.80;101842.44;7395939;19;20022;-60
2023/04/21 08:14:16;;;;;;;14.10;7.97;;;;;;;13.16;62.73;101843.84;7396548;19;20010;-60
2023/04/21 08:16:44;;;;;;;13.77;7.85;;;;;;;13.27;62.11;101842.28;7392781;19;20026;-59
2023/04/21 08:19:11;;;;;;;15.43;8.02;;;;;;;13.29;61.69;101837.72;7394402;19;20022;-59
2023/04/21 08:21:38;;;;;;;16.98;8.55;;;;;;;13.30;61.98;101837.59;7396021;19;20045;-59
2023/04/21 08:24:05;;;;;;;15.52;7.88;;;;;;;13.35;61.48;101837.28;7396746;19;20010;-60
2023/04/21 08:26:34;;;;;;;15.73;8.20;;;;;;;13.40;60.54;101837.84;7393873;19;20018;-60
2023/04/21 08:29:01;;;;;;;15.20;8.32;;;;;;;13.38;60.48;101837.09;7394113;19;20019;-60
2023/04/21 08:31:30;;;;;;;15.05;8.10;;;;;;;13.39;60.53;101829.00;7393999;19;20018;-60
2023/04/21 08:33:57;;;;;;;15.98;8.65;;;;;;;13.38;60.46;101840.59;7396121;19;20034;-59
2023/04/21 08:36:28;;;;;;;21.08;8.50;;;;;;;13.48;60.66;101842.63;7392425;19;20018;-60
2023/04/21 08:38:56;;;;;;;16.88;8.40;;;;;;;13.54;60.33;101837.72;7391988;19;20046;-59
2023/04/21 08:41:24;;;;;;;16.83;8.15;;;;;;;13.56;60.26;101843.81;7395294;19;20048;-60
2023/04/21 08:43:51;;;;;;;17.17;8.40;;;;;;;13.59;59.86;101837.44;7394893;19;20098;-64
2023/04/21 08:46:19;;;;;;;15.55;8.30;;;;;;;13.66;59.94;101833.41;7394282;19;20106;-59
2023/04/21 08:48:46;;;;;;;16.70;7.53;;;;;;;13.71;59.78;101830.41;7395391;19;20026;-60
2023/04/21 08:51:20;;;;;;;16.85;8.63;;;;;;;13.83;59.56;101829.53;7393010;19;20551;-58
2023/04/21 08:53:47;;;;;;;13.27;7.00;;;;;;;13.84;59.63;101825.91;7394498;19;20031;-58
2023/04/21 08:56:14;;;;;;;15.02;7.70;;;;;;;13.95;59.25;101826.00;7393440;19;20026;-58
2023/04/21 08:58:41;;;;;;;13.77;8.23;;;;;;;13.98;58.91;101815.16;7393205;19;20019;-60
2023/04/21 09:01:08;;;;;;;16.25;7.43;;;;;;;14.08;58.90;101804.66;7393486;19;20017;-60
2023/04/21 09:03:35;;;;;;;16.15;7.78;;;;;;;14.07;58.85;101811.81;7394668;19;20025;-60
2023/04/21 09:06:08;;;;;;;18.30;7.53;;;;;;;14.14;58.58;101812.22;7393552;19;20063;-59
2023/04/21 09:08:42;;;;;;;15.45;7.85;;;;;;;14.27;58.38;101807.75;7394359;19;20391;-59
2023/04/21 09:11:13;;;;;;;17.45;7.50;;;;;;;14.28;58.28;101806.75;7394541;19;20033;-59
2023/04/21 09:13:42;;;;;;;15.07;8.25;;;;;;;14.32;58.13;101800.25;7394078;19;20023;-59
2023/04/21 09:16:22;;;;;;;13.05;7.90;;;;;;;14.45;58.00;101794.88;7392663;19;20078;-59
2023/04/21 09:18:50;;;;;;;14.07;7.63;;;;;;;14.48;57.93;101793.81;7393069;19;20051;-60
2023/04/21 09:21:18;;;;;;;12.30;7.35;;;;;;;14.56;56.91;101802.97;7394805;19;20010;-60
2023/04/21 09:23:51;;;;;;;16.13;7.30;;;;;;;14.69;56.57;101799.38;7394280;19;20027;-59
2023/04/21 09:26:22;;;;;;;13.80;7.30;;;;;;;14.67;56.86;101801.31;7392470;19;20039;-59
2023/04/21 09:28:51;;;;;;;15.40;7.30;;;;;;;14.71;57.28;101795.66;7393929;19;20014;-59
2023/04/21 09:31:23;;;;;;;20.30;7.95;;;;;;;14.81;56.87;101799.34;7394144;19;20047;-59
2023/04/21 09:33:54;;;;;;;17.00;7.32;;;;;;;14.87;56.64;101793.53;7393761;19;20033;-58
2023/04/21 09:36:29;;;;;;;14.30;7.60;;;;;;;14.90;56.28;101794.28;7390900;19;20019;-59
2023/04/21 09:39:01;;;;;;;12.27;6.75;;;;;;;14.97;56.27;101790.19;7392562;19;20018;-59
2023/04/21 09:41:48;;;;;;;13.38;6.45;;;;;;;15.14;55.13;101786.22;7389504;19;20051;-58
2023/04/21 09:44:16;;;;;;;12.95;6.78;;;;;;;15.20;53.97;101783.09;7391467;19;20397;-58
2023/04/21 09:46:47;;;;;;;13.00;6.45;;;;;;;15.25;53.51;101780.91;7391732;19;20015;-58
2023/04/21 09:49:17;;;;;;;12.48;6.03;;;;;;;15.31;52.95;101786.63;7393346;19;20018;-60
2023/04/21 09:51:44;;;;;;;13.98;6.13;;;;;;;15.35;52.37;101776.56;7392295;19;20022;-59
2023/04/21 09:54:19;;;;;;;12.25;5.93;;;;;;;15.31;52.79;101773.28;7392389;19;20022;-58
2023/04/21 09:56:58;;;;;;;12.30;6.00;;;;;;;15.38;52.99;101768.34;7390927;19;20014;-59
2023/04/21 09:59:31;;;;;;;15.15;5.93;;;;;;;15.44;52.88;101759.81;7391806;19;20030;-58
2023/04/21 10:01:59;;;;;;;13.00;5.57;;;;;;;15.52;52.35;101768.09;7393471;19;20024;-59
2023/04/21 10:04:27;;;;;;;16.85;6.30;;;;;;;15.59;51.93;101758.63;7392907;19;20019;-58
2023/04/21 10:06:57;;;;;;;13.15;5.70;;;;;;;15.73;51.15;101754.06;7390490;19;20054;-59
2023/04/21 10:09:25;;;;;;;13.07;6.10;;;;;;;15.75;50.99;101755.63;7391899;19;20018;-58
2023/04/21 10:11:54;;;;;;;14.60;5.53;;;;;;;15.86;50.32;101743.22;7391869;19;20547;-59
2023/04/21 10:14:21;;;;;;;12.25;5.90;;;;;;;15.93;49.77;101742.63;7393047;19;20475;-59
2023/04/21 10:16:56;;;;;;;10.48;5.88;;;;;;;15.95;50.27;101745.16;7388607;19;20372;-59
2023/04/21 10:19:25;;;;;;;11.75;6.35;;;;;;;16.02;49.82;101739.19;7391255;19;20022;-59
2023/04/21 10:21:58;;;;;;;11.73;5.75;;;;;;;16.13;48.76;101732.97;7390330;19;20010;-60
2023/04/21 10:24:37;;;;;;;9.50;5.20;;;;;;;16.17;49.11;101730.91;7390908;19;20014;-59
2023/04/21 10:27:05;;;;;;;15.48;5.47;;;;;;;16.25;48.60;101725.78;7388906;19;20023;-60
2023/04/21 10:29:35;;;;;;;14.98;5.95;;;;;;;16.33;47.50;101728.66;7391821;19;20031;-60
2023/04/21 10:32:40;;;;;;;12.80;5.57;;;;;;;16.31;46.24;101725.28;7390209;19;20022;-59
2023/04/21 10:35:12;;;;;;;15.13;6.22;;;;;;;16.19;47.08;101718.28;7391802;19;20025;-59
2023/04/21 10:37:41;;;;;;;15.15;5.82;;;;;;;16.26;46.62;101716.81;7393516;19;20047;-59
2023/04/21 10:40:28;;;;;;;18.52;5.78;;;;;;;16.49;46.14;101728.28;7390114;19;20033;-59
2023/04/21 10:43:43;;;;;;;11.68;5.72;;;;;;;16.52;46.48;101719.97;7390710;19;20012;-60
2023/04/21 10:46:37;;;;;;;12.32;6.18;;;;;;;16.47;46.60;101711.50;7391044;19;20014;-60
2023/04/21 10:49:23;;;;;;;13.38;5.95;;;;;;;16.51;47.41;101699.56;7390593;19;20070;-59
2023/04/21 10:51:56;;;;;;;12.55;5.60;;;;;;;16.63;46.41;101701.19;7391664;19;20019;-59
2023/04/21 10:54:40;;;;;;;14.48;5.93;;;;;;;16.64;46.36;101694.91;7390266;19;20498;-59
2023/04/21 10:57:08;;;;;;;;;;;;;;;16.46;46.28;101691.09;7390463;19;20011;-59
2023/04/21 10:59:36;;;;;;;11.07;5.15;;;;;;;16.54;46.72;101685.94;7389575;19;19929;-59
2023/04/21 11:02:21;;;;;;;12.52;5.68;;;;;;;16.71;46.06;101679.16;7390876;19;20010;-59
2023/04/21 11:04:53;;;;;;;12.73;5.93;;;;;;;16.76;46.40;101682.34;7390225;19;20022;-59
2023/04/21 11:07:22;;;;;;;10.80;5.47;;;;;;;16.99;45.36;101675.88;7389596;19;20022;-59
2023/04/21 11:10:06;;;;;;;12.80;5.78;;;;;;;17.08;44.31;101670.69;7388556;19;20022;-60
2023/04/21 11:12:38;;;;;;;11.98;5.15;;;;;;;17.05;45.19;101666.44;7390915;19;20022;-60
2023/04/21 11:15:07;;;;;;;13.50;5.97;;;;;;;17.22;44.19;101657.81;7388284;19;20033;-59
2023/04/21 11:17:38;;;;;;;11.52;5.70;;;;;;;17.19;43.91;101660.75;7387763;19;20029;-60
2023/04/21 11:20:06;;;;;;;14.00;5.03;;;;;;;17.30;43.33;101651.78;7388774;19;20085;-58
2023/04/21 11:22:36;;;;;;;13.43;4.70;;;;;;;17.44;42.05;101653.25;7390754;19;20019;-59
2023/04/21 11:25:03;;;;;;;12.20;4.72;;;;;;;17.51;40.35;101639.19;7389778;19;20019;-59
2023/04/21 11:27:30;;;;;;;13.05;4.72;;;;;;;17.52;40.42;101632.00;7386588;19;20014;-59
2023/04/21 11:29:57;;;;;;;12.35;4.30;;;;;;;17.48;39.30;101638.59;7392196;19;20520;-59